createdAt,value
2024-03-11T00:02:02.353Z,13.38
2024-03-11T00:04:30.004Z,12.20
2024-03-11T00:06:58.799Z,11.30
2024-03-11T00:09:34.136Z,12.82
2024-03-11T00:12:01.681Z,12.10
2024-03-11T00:14:31.838Z,13.02
2024-03-11T00:16:59.076Z,12.07
2024-03-11T00:19:27.150Z,13.00
2024-03-11T00:21:58.260Z,12.35
2024-03-11T00:24:25.490Z,11.13
2024-03-11T00:26:53.283Z,12.57
2024-03-11T00:29:20.678Z,12.48
2024-03-11T00:31:47.350Z,13.13
2024-03-11T00:34:18.234Z,12.98
2024-03-11T00:36:49.276Z,13.13
2024-03-11T00:39:19.006Z,12.68
2024-03-11T00:44:12.072Z,11.73
2024-03-11T00:46:39.657Z,12.63
2024-03-11T00:49:09.624Z,13.48
2024-03-11T00:51:36.435Z,12.55
2024-03-11T00:54:03.059Z,13.18
2024-03-11T00:56:29.599Z,13.13
2024-03-11T00:58:56.183Z,13.50
2024-03-11T01:01:22.732Z,12.45
2024-03-11T01:03:49.309Z,13.15
2024-03-11T01:06:16.931Z,12.77
2024-03-11T01:08:43.582Z,13.90
2024-03-11T01:11:11.995Z,12.65
2024-03-11T01:13:38.658Z,13.13
2024-03-11T01:16:06.778Z,13.77
2024-03-11T01:18:33.329Z,12.65
2024-03-11T01:21:01.237Z,13.18
2024-03-11T01:23:29.870Z,13.27
2024-03-11T01:25:56.455Z,13.35
2024-03-11T01:28:22.989Z,12.30
2024-03-11T01:30:49.914Z,12.80
2024-03-11T01:33:16.744Z,13.32
2024-03-11T01:35:44.481Z,13.20
2024-03-11T01:38:11.559Z,12.70
2024-03-11T01:40:38.256Z,13.73
2024-03-11T01:43:05.167Z,13.15
2024-03-11T01:45:34.111Z,12.77
2024-03-11T01:48:01.704Z,13.13
2024-03-11T01:50:29.804Z,13.80
2024-03-11T01:52:58.211Z,12.65
2024-03-11T01:55:28.979Z,12.65
2024-03-11T01:57:58.137Z,12.35
2024-03-11T02:00:25.021Z,11.40
2024-03-11T02:02:56.117Z,13.50
2024-03-11T02:05:25.913Z,12.23
2024-03-11T02:07:57.995Z,13.77
2024-03-11T02:10:25.914Z,12.35
2024-03-11T02:12:52.717Z,12.65
2024-03-11T02:15:19.544Z,13.55
2024-03-11T02:17:47.659Z,12.50
2024-03-11T02:20:19.644Z,13.32
2024-03-11T02:22:54.417Z,14.00
2024-03-11T02:25:29.494Z,13.07
2024-03-11T02:27:58.438Z,12.60
2024-03-11T02:30:25.492Z,12.13
2024-03-11T02:32:52.135Z,12.55
2024-03-11T02:35:18.887Z,12.40
2024-03-11T02:37:47.882Z,11.95
2024-03-11T02:40:18.321Z,12.25
2024-03-11T02:42:45.521Z,12.20
2024-03-11T02:45:16.942Z,12.90
2024-03-11T02:47:44.380Z,13.40
2024-03-11T02:50:11.691Z,12.88
2024-03-11T02:52:38.688Z,11.57
2024-03-11T02:55:07.012Z,13.30
2024-03-11T02:57:34.648Z,14.13
2024-03-11T03:00:01.995Z,14.25
2024-03-11T03:02:29.041Z,12.98
2024-03-11T03:04:57.301Z,12.95
2024-03-11T03:07:27.705Z,13.35
2024-03-11T03:09:54.752Z,14.05
2024-03-11T03:12:21.837Z,14.23
2024-03-11T03:14:48.792Z,14.80
2024-03-11T03:17:15.608Z,16.25
2024-03-11T03:19:42.172Z,15.38
2024-03-11T03:22:09.053Z,15.30
2024-03-11T03:24:35.672Z,14.43
2024-03-11T03:27:02.222Z,15.48
2024-03-11T03:29:28.815Z,15.98
2024-03-11T03:31:55.426Z,16.05
2024-03-11T03:34:21.955Z,15.35
2024-03-11T03:36:48.516Z,16.35
2024-03-11T03:39:15.115Z,17.02
2024-03-11T03:41:41.684Z,15.60
2024-03-11T03:44:08.320Z,15.05
2024-03-11T03:46:34.995Z,15.38
2024-03-11T03:49:02.527Z,14.80
2024-03-11T03:51:29.317Z,15.32
2024-03-11T03:53:58.206Z,14.27
2024-03-11T03:56:26.833Z,15.00
2024-03-11T03:58:54.330Z,15.55
2024-03-11T04:01:21.167Z,14.75
2024-03-11T04:03:47.750Z,14.52
2024-03-11T04:06:15.035Z,14.48
2024-03-11T04:08:42.052Z,14.40
2024-03-11T04:11:08.764Z,15.32
2024-03-11T04:13:36.906Z,13.45
2024-03-11T04:16:05.885Z,17.15
2024-03-11T04:18:32.552Z,16.20
2024-03-11T04:20:59.155Z,14.73
2024-03-11T04:23:27.523Z,14.52
2024-03-11T04:25:54.220Z,14.63
2024-03-11T04:28:20.823Z,15.35
2024-03-11T04:30:47.395Z,15.40
2024-03-11T04:33:18.188Z,15.52
2024-03-11T04:35:45.554Z,14.32
2024-03-11T04:38:13.694Z,14.48
2024-03-11T04:40:42.643Z,16.17
2024-03-11T04:43:09.530Z,15.25
2024-03-11T04:45:38.511Z,15.63
2024-03-11T04:48:11.340Z,14.65
2024-03-11T04:50:42.963Z,15.85
2024-03-11T04:53:10.828Z,15.38
2024-03-11T04:55:40.486Z,14.55
2024-03-11T04:58:07.073Z,14.95
2024-03-11T05:00:34.087Z,14.38
2024-03-11T05:03:02.600Z,15.25
2024-03-11T05:05:37.289Z,15.02
2024-03-11T05:08:05.307Z,15.48
2024-03-11T05:10:32.295Z,14.38
2024-03-11T05:12:59.559Z,15.40
2024-03-11T05:15:29.549Z,14.85
2024-03-11T05:17:56.874Z,15.73
2024-03-11T05:20:23.726Z,14.80
2024-03-11T05:22:50.993Z,14.88
2024-03-11T05:25:20.722Z,14.40
2024-03-11T05:30:17.047Z,12.82
2024-03-11T05:32:44.154Z,12.95
2024-03-11T05:35:11.360Z,14.45
2024-03-11T05:37:37.954Z,12.70
2024-03-11T05:40:07.474Z,12.57
2024-03-11T05:42:35.240Z,13.13
2024-03-11T05:45:02.610Z,12.82
2024-03-11T05:47:29.256Z,12.82
2024-03-11T05:49:56.195Z,13.40
2024-03-11T05:52:26.183Z,12.82
2024-03-11T05:54:53.891Z,13.60
2024-03-11T05:57:26.333Z,12.30
2024-03-11T05:59:53.937Z,12.90
2024-03-11T06:02:21.722Z,13.82
2024-03-11T06:04:48.750Z,12.60
2024-03-11T06:07:25.129Z,13.80
2024-03-11T06:09:52.675Z,13.60
2024-03-11T06:12:22.924Z,13.05
2024-03-11T06:14:50.790Z,12.82
2024-03-11T06:17:18.095Z,13.27
2024-03-11T06:19:45.847Z,12.57
2024-03-11T06:22:13.257Z,12.02
2024-03-11T06:24:40.174Z,12.32
2024-03-11T06:27:07.326Z,12.27
2024-03-11T06:29:34.274Z,12.55
2024-03-11T06:32:00.888Z,11.23
2024-03-11T06:34:28.784Z,11.90
2024-03-11T06:36:56.340Z,10.27
2024-03-11T06:39:22.996Z,12.07
2024-03-11T06:41:49.788Z,11.23
2024-03-11T06:44:21.288Z,11.30
2024-03-11T06:46:58.465Z,11.48
2024-03-11T06:49:26.655Z,10.88
2024-03-11T06:51:53.158Z,10.20
2024-03-11T06:54:19.732Z,11.32
2024-03-11T06:56:46.248Z,11.43
2024-03-11T06:59:12.928Z,9.73
2024-03-11T07:01:40.242Z,9.73
2024-03-11T07:04:06.965Z,10.70
2024-03-11T07:06:33.893Z,10.30
2024-03-11T07:09:02.509Z,9.85
2024-03-11T07:11:29.101Z,11.15
2024-03-11T07:13:55.710Z,9.88
2024-03-11T07:16:23.937Z,9.98
2024-03-11T07:18:54.512Z,11.13
2024-03-11T07:21:21.180Z,9.55
2024-03-11T07:23:49.451Z,9.57
2024-03-11T07:26:16.097Z,9.55
2024-03-11T07:28:42.683Z,9.88
2024-03-11T07:31:10.485Z,10.27
2024-03-11T07:33:37.580Z,9.52
2024-03-11T07:36:04.548Z,10.32
2024-03-11T07:38:31.195Z,10.02
2024-03-11T07:40:57.773Z,10.18
2024-03-11T07:43:24.355Z,10.40
2024-03-11T07:45:50.942Z,10.40
2024-03-11T07:48:17.697Z,10.90
2024-03-11T07:50:44.361Z,10.18
2024-03-11T07:53:13.477Z,9.65
2024-03-11T07:55:41.231Z,11.15
2024-03-11T07:58:08.284Z,9.15
2024-03-11T08:00:37.712Z,9.30
2024-03-11T08:03:05.225Z,8.50
2024-03-11T08:05:32.195Z,9.60
2024-03-11T08:07:59.649Z,8.27
2024-03-11T08:10:29.752Z,9.07
2024-03-11T08:12:56.781Z,8.98
2024-03-11T08:15:23.606Z,8.15
2024-03-11T08:17:52.145Z,8.27
2024-03-11T08:20:21.756Z,7.60
2024-03-11T08:22:53.802Z,9.55
2024-03-11T08:25:28.738Z,7.57
2024-03-11T08:27:56.045Z,6.95
2024-03-11T08:30:25.230Z,7.38
2024-03-11T08:32:51.880Z,7.15
2024-03-11T08:35:22.705Z,7.85
2024-03-11T08:37:51.025Z,7.90
2024-03-11T08:40:20.834Z,7.65
2024-03-11T08:42:54.005Z,7.03
2024-03-11T08:45:24.256Z,7.18
2024-03-11T08:47:52.504Z,6.20
2024-03-11T08:50:23.353Z,6.15
2024-03-11T08:52:50.807Z,6.40
2024-03-11T08:55:18.317Z,5.43
2024-03-11T08:57:50.750Z,5.03
2024-03-11T09:00:18.394Z,5.70
2024-03-11T09:02:48.478Z,5.20
2024-03-11T09:05:19.391Z,4.82
2024-03-11T09:07:47.527Z,5.30
2024-03-11T09:10:17.654Z,5.43
2024-03-11T09:12:46.006Z,5.57
2024-03-11T09:15:20.536Z,5.15
2024-03-11T09:17:51.209Z,5.20
2024-03-11T09:20:21.508Z,4.70
2024-03-11T09:22:49.433Z,5.47
2024-03-11T09:25:25.449Z,5.05
2024-03-11T09:27:55.028Z,5.18
2024-03-11T09:30:21.888Z,5.50
2024-03-11T09:32:50.838Z,4.22
2024-03-11T09:35:18.409Z,5.25
2024-03-11T09:37:52.625Z,5.13
2024-03-11T09:40:29.120Z,4.90
2024-03-11T09:42:57.498Z,4.80
2024-03-11T09:45:29.592Z,5.63
2024-03-11T09:47:58.151Z,5.07
2024-03-11T09:50:34.752Z,5.13
2024-03-11T09:53:13.937Z,4.60
2024-03-11T09:55:44.946Z,4.90
2024-03-11T09:58:14.381Z,4.55
2024-03-11T10:00:53.872Z,4.50
2024-03-11T10:03:23.473Z,4.47
2024-03-11T10:06:02.288Z,4.55
2024-03-11T10:08:32.470Z,4.15
2024-03-11T10:11:22.523Z,3.97
2024-03-11T10:13:53.647Z,4.20
2024-03-11T10:16:28.985Z,4.00
2024-03-11T10:19:04.550Z,4.18
2024-03-11T10:21:35.744Z,2.90
2024-03-11T10:24:03.150Z,3.47
2024-03-11T10:26:43.500Z,2.80
2024-03-11T10:29:12.840Z,2.88
2024-03-11T10:31:42.703Z,2.70
2024-03-11T10:34:21.776Z,2.70
2024-03-11T10:36:56.751Z,2.65
2024-03-11T10:39:23.434Z,2.00
2024-03-11T10:41:51.894Z,2.40
2024-03-11T10:44:30.571Z,1.90
2024-03-11T10:47:15.466Z,1.98
2024-03-11T10:49:46.851Z,1.83
2024-03-11T10:52:17.043Z,1.60
2024-03-11T10:54:58.219Z,1.75
2024-03-11T10:57:40.360Z,1.60
2024-03-11T11:00:18.069Z,1.58
2024-03-11T11:02:50.867Z,1.85
2024-03-11T11:05:25.239Z,1.42
2024-03-11T11:07:57.101Z,1.10
2024-03-11T11:10:30.912Z,0.90
2024-03-11T11:12:57.902Z,1.08
2024-03-11T11:15:25.279Z,1.10
2024-03-11T11:17:55.735Z,0.90
2024-03-11T11:20:39.079Z,0.90
2024-03-11T11:23:06.322Z,0.70
2024-03-11T11:25:40.772Z,1.10
2024-03-11T11:28:08.508Z,0.93
2024-03-11T11:30:37.804Z,1.10
2024-03-11T11:33:05.224Z,1.20
2024-03-11T11:35:37.195Z,1.17
2024-03-11T11:38:39.525Z,1.00
2024-03-11T11:41:38.508Z,0.63
2024-03-11T11:44:05.226Z,0.80
2024-03-11T11:46:44.777Z,0.88
2024-03-11T11:49:22.565Z,0.90
2024-03-11T11:51:52.772Z,0.90
2024-03-11T11:54:34.527Z,0.95
2024-03-11T11:57:03.437Z,0.70
2024-03-11T11:59:30.677Z,1.20
2024-03-11T12:02:01.306Z,0.80
2024-03-11T12:04:30.706Z,1.05
2024-03-11T12:06:58.174Z,0.80
2024-03-11T12:09:25.265Z,0.60
2024-03-11T12:11:58.354Z,0.73
2024-03-11T12:14:24.951Z,0.80
2024-03-11T12:17:03.692Z,0.70
2024-03-11T12:19:31.512Z,1.08
2024-03-11T12:21:59.647Z,1.45
2024-03-11T12:24:27.244Z,0.60
2024-03-11T12:26:57.184Z,0.70
2024-03-11T12:29:24.181Z,0.93
2024-03-11T12:31:57.240Z,0.60
2024-03-11T12:34:25.622Z,0.95
2024-03-11T12:36:53.672Z,0.70
2024-03-11T12:39:43.927Z,0.90
2024-03-11T12:42:10.687Z,0.60
2024-03-11T12:44:38.029Z,0.70
2024-03-11T12:47:06.230Z,0.60
2024-03-11T12:49:33.231Z,0.50
2024-03-11T12:52:05.207Z,0.70
2024-03-11T12:54:32.162Z,0.90
2024-03-11T12:57:18.134Z,1.30
2024-03-11T12:59:58.845Z,0.60
2024-03-11T13:02:25.482Z,0.70
2024-03-11T13:04:54.528Z,0.90
2024-03-11T13:07:24.463Z,0.80
2024-03-11T13:09:58.155Z,0.60
2024-03-11T13:12:30.253Z,0.60
2024-03-11T13:14:57.480Z,0.88
2024-03-11T13:17:24.266Z,1.10
2024-03-11T13:19:57.374Z,1.00
2024-03-11T13:22:23.987Z,0.90
2024-03-11T13:24:57.502Z,0.65
2024-03-11T13:27:26.266Z,0.77
2024-03-11T13:29:52.830Z,0.80
2024-03-11T13:32:21.582Z,0.95
2024-03-11T13:34:49.955Z,0.70
2024-03-11T13:37:17.255Z,0.73
2024-03-11T13:39:45.338Z,1.00
2024-03-11T13:42:13.823Z,0.75
2024-03-11T13:44:42.139Z,0.60
2024-03-11T13:47:10.298Z,0.60
2024-03-11T13:49:41.267Z,0.73
2024-03-11T13:52:10.285Z,0.85
2024-03-11T13:54:39.202Z,0.88
2024-03-11T13:57:08.335Z,0.90
2024-03-11T13:59:35.267Z,1.00
2024-03-11T14:02:01.954Z,0.90
2024-03-11T14:04:29.228Z,0.85
2024-03-11T14:06:55.884Z,0.50
2024-03-11T14:09:24.768Z,0.90
2024-03-11T14:11:53.433Z,0.73
2024-03-11T14:14:20.094Z,1.00
2024-03-11T14:16:48.444Z,0.85
2024-03-11T14:19:17.543Z,0.80
2024-03-11T14:21:45.272Z,0.68
2024-03-11T14:24:14.958Z,0.60
2024-03-11T14:26:43.980Z,1.10
2024-03-11T14:29:16.995Z,0.75
2024-03-11T14:31:47.900Z,0.80
2024-03-11T14:34:15.646Z,0.90
2024-03-11T14:36:44.982Z,0.80
2024-03-11T14:39:21.182Z,0.70
2024-03-11T14:41:48.871Z,0.80
2024-03-11T14:44:16.204Z,1.40
2024-03-11T14:46:52.888Z,0.88
2024-03-11T14:49:25.655Z,0.90
2024-03-11T14:51:55.022Z,0.70
2024-03-11T14:54:30.920Z,0.70
2024-03-11T14:56:57.968Z,0.90
2024-03-11T14:59:28.371Z,0.75
2024-03-11T15:01:55.580Z,0.52
2024-03-11T15:04:26.384Z,0.73
2024-03-11T15:06:53.511Z,0.60
2024-03-11T15:09:20.598Z,0.70
2024-03-11T15:11:48.914Z,0.60
2024-03-11T15:14:21.459Z,0.70
2024-03-11T15:16:49.979Z,0.85
2024-03-11T15:19:16.646Z,0.50
2024-03-11T15:21:44.919Z,1.00
2024-03-11T15:24:11.849Z,0.70
2024-03-11T15:26:38.488Z,0.55
2024-03-11T15:29:09.212Z,0.60
2024-03-11T15:31:36.385Z,0.50
2024-03-11T15:34:04.575Z,0.95
2024-03-11T15:36:34.217Z,0.40
2024-03-11T15:39:00.882Z,0.70
2024-03-11T15:41:27.792Z,0.70
2024-03-11T15:43:56.588Z,0.98
2024-03-11T15:46:24.438Z,0.60
2024-03-11T15:48:53.116Z,0.70
2024-03-11T15:51:21.705Z,1.42
2024-03-11T15:53:51.505Z,0.65
2024-03-11T15:56:20.178Z,0.70
2024-03-11T15:58:47.423Z,0.52
2024-03-11T16:01:23.417Z,0.57
2024-03-11T16:03:52.342Z,0.50
2024-03-11T16:06:19.339Z,0.80
2024-03-11T16:08:47.323Z,0.77
2024-03-11T16:11:14.591Z,0.82
2024-03-11T16:13:41.620Z,0.60
2024-03-11T16:16:09.600Z,0.63
2024-03-11T16:18:37.195Z,0.60
2024-03-11T16:21:03.938Z,0.70
2024-03-11T16:23:32.048Z,0.70
2024-03-11T16:26:02.669Z,0.80
2024-03-11T16:28:30.425Z,0.50
2024-03-11T16:30:57.174Z,0.40
2024-03-11T16:33:25.820Z,0.75
2024-03-11T16:35:52.361Z,0.65
2024-03-11T16:38:19.573Z,0.70
2024-03-11T16:40:47.070Z,0.57
2024-03-11T16:43:17.317Z,0.55
2024-03-11T16:45:44.608Z,0.75
2024-03-11T16:48:12.753Z,0.55
2024-03-11T16:50:46.432Z,0.50
2024-03-11T16:53:13.726Z,0.90
2024-03-11T16:55:42.467Z,0.73
2024-03-11T16:58:12.597Z,0.70
2024-03-11T17:00:43.913Z,1.00
2024-03-11T17:03:10.908Z,0.60
2024-03-11T17:05:39.717Z,0.73
2024-03-11T17:08:09.636Z,1.10
2024-03-11T17:10:37.059Z,0.50
2024-03-11T17:13:08.165Z,0.98
2024-03-11T17:15:36.562Z,1.30
2024-03-11T17:18:04.403Z,0.80
2024-03-11T17:20:43.302Z,1.00
2024-03-11T17:23:14.263Z,0.93
2024-03-11T17:25:40.865Z,0.80
2024-03-11T17:28:11.972Z,1.15
2024-03-11T17:30:42.174Z,1.05
2024-03-11T17:33:10.178Z,1.33
2024-03-11T17:35:41.495Z,1.58
2024-03-11T17:38:10.162Z,1.30
2024-03-11T17:40:38.269Z,1.67
2024-03-11T17:43:11.060Z,1.60
2024-03-11T17:45:40.568Z,2.40
2024-03-11T17:50:36.729Z,3.00
2024-03-11T17:53:03.431Z,2.80
2024-03-11T17:55:38.015Z,2.60
2024-03-11T17:58:05.906Z,2.83
2024-03-11T18:00:34.356Z,2.83
2024-03-11T18:03:08.378Z,2.70
2024-03-11T18:05:36.465Z,2.75
2024-03-11T18:08:10.598Z,2.92
2024-03-11T18:10:41.871Z,3.75
2024-03-11T18:13:12.921Z,5.90
2024-03-11T18:15:41.653Z,5.55
2024-03-11T18:18:11.229Z,4.10
2024-03-11T18:20:41.381Z,3.80
2024-03-11T18:23:13.453Z,3.20
2024-03-11T18:25:40.500Z,4.70
2024-03-11T18:28:09.170Z,3.30
2024-03-11T18:30:39.198Z,3.83
2024-03-11T18:33:08.026Z,2.78
2024-03-11T18:35:36.500Z,2.10
2024-03-11T18:38:07.583Z,1.50
2024-03-11T18:40:35.024Z,1.38
2024-03-11T18:43:02.286Z,2.65
2024-03-11T18:45:30.743Z,3.75
2024-03-11T18:47:57.553Z,2.65
2024-03-11T18:50:25.519Z,2.78
2024-03-11T18:52:59.758Z,2.45
2024-03-11T18:55:31.067Z,2.05
2024-03-11T18:57:59.089Z,2.35
2024-03-11T19:00:30.638Z,2.15
2024-03-11T19:02:58.114Z,2.00
2024-03-11T19:05:25.789Z,2.65
2024-03-11T19:07:52.420Z,2.60
2024-03-11T19:10:19.057Z,2.97
2024-03-11T19:12:48.530Z,3.03
2024-03-11T19:17:46.864Z,3.83
2024-03-11T19:20:16.723Z,2.33
2024-03-11T19:22:46.580Z,2.95
2024-03-11T19:25:19.389Z,3.25
2024-03-11T19:27:47.017Z,3.53
2024-03-11T19:30:16.325Z,2.58
2024-03-11T19:32:43.495Z,3.42
2024-03-11T19:35:15.527Z,3.60
2024-03-11T19:38:35.822Z,5.20
2024-03-11T19:41:23.813Z,3.50
2024-03-11T19:44:16.312Z,3.05
2024-03-11T19:47:07.985Z,3.20
2024-03-11T19:50:13.368Z,2.30
2024-03-11T19:53:18.520Z,2.40
2024-03-11T19:56:17.949Z,3.17
2024-03-11T19:59:23.312Z,3.28
2024-03-11T20:02:02.335Z,2.05
2024-03-11T20:05:17.187Z,2.25
2024-03-11T20:08:07.604Z,2.20
2024-03-11T20:10:58.917Z,3.15
2024-03-11T20:14:13.325Z,3.20
2024-03-11T20:16:53.724Z,2.33
2024-03-11T20:19:42.173Z,2.10
2024-03-11T20:22:40.041Z,1.90
2024-03-11T20:25:25.518Z,2.30
2024-03-11T20:28:07.592Z,3.47
2024-03-11T20:31:07.493Z,2.22
2024-03-11T20:33:34.866Z,2.00
2024-03-11T20:36:02.970Z,2.55
2024-03-11T20:38:29.879Z,2.78
2024-03-11T20:40:56.811Z,2.30
2024-03-11T20:43:24.204Z,2.53
2024-03-11T20:45:52.894Z,2.40
2024-03-11T20:48:20.041Z,2.60
2024-03-11T20:50:47.236Z,2.45
2024-03-11T20:53:18.234Z,2.00
2024-03-11T20:55:44.835Z,2.08
2024-03-11T20:58:12.438Z,1.75
2024-03-11T21:00:39.371Z,1.60
2024-03-11T21:03:06.625Z,2.05
2024-03-11T21:05:36.478Z,1.83
2024-03-11T21:08:03.730Z,2.10
2024-03-11T21:10:31.203Z,1.98
2024-03-11T21:12:58.459Z,2.13
2024-03-11T21:15:27.793Z,1.85
2024-03-11T21:17:55.173Z,1.90
2024-03-11T21:20:22.179Z,1.70
2024-03-11T21:22:53.912Z,1.80
2024-03-11T21:25:24.399Z,1.98
2024-03-11T21:27:55.331Z,2.35
2024-03-11T21:30:23.389Z,1.90
2024-03-11T21:32:51.279Z,2.38
2024-03-11T21:35:18.968Z,1.70
2024-03-11T21:37:46.353Z,1.70
2024-03-11T21:40:15.487Z,1.95
2024-03-11T21:42:50.538Z,1.70
2024-03-11T21:45:20.213Z,1.75
2024-03-11T21:50:13.975Z,1.83
2024-03-11T21:52:40.798Z,1.70
2024-03-11T21:55:12.077Z,2.20
2024-03-11T21:57:40.467Z,2.10
2024-03-11T22:00:08.224Z,2.22
2024-03-11T22:02:35.675Z,1.88
2024-03-11T22:05:02.227Z,2.13
2024-03-11T22:07:33.084Z,2.20
2024-03-11T22:09:59.733Z,2.17
2024-03-11T22:12:26.477Z,2.60
2024-03-11T22:14:53.156Z,2.20
2024-03-11T22:17:19.839Z,2.03
2024-03-11T22:19:46.504Z,2.22
2024-03-11T22:22:13.219Z,2.63
2024-03-11T22:24:42.483Z,1.88
2024-03-11T22:27:09.112Z,1.73
2024-03-11T22:29:35.660Z,1.67
2024-03-11T22:32:02.246Z,1.75
2024-03-11T22:34:29.024Z,1.80
2024-03-11T22:36:55.980Z,2.05
2024-03-11T22:39:24.286Z,1.80
2024-03-11T22:41:51.435Z,1.80
2024-03-11T22:44:18.291Z,1.83
2024-03-11T22:46:45.147Z,1.65
2024-03-11T22:49:14.331Z,1.80
2024-03-11T22:51:43.947Z,2.15
2024-03-11T22:54:10.845Z,2.00
2024-03-11T22:56:38.443Z,1.73
2024-03-11T22:59:05.716Z,2.00
2024-03-11T23:01:34.857Z,2.08
2024-03-11T23:04:05.953Z,1.85
2024-03-11T23:06:33.805Z,1.83
2024-03-11T23:09:00.922Z,2.10
2024-03-11T23:11:27.818Z,2.13
2024-03-11T23:13:54.588Z,2.85
2024-03-11T23:16:22.016Z,2.20
2024-03-11T23:18:51.193Z,2.17
2024-03-11T23:21:18.546Z,2.60
2024-03-11T23:23:46.893Z,1.80
2024-03-11T23:26:14.471Z,2.20
2024-03-11T23:28:41.254Z,2.10
2024-03-11T23:31:10.382Z,2.50
2024-03-11T23:33:37.316Z,1.85
2024-03-11T23:36:04.165Z,2.00
2024-03-11T23:38:33.388Z,2.17
2024-03-11T23:41:00.273Z,1.80
2024-03-11T23:43:27.030Z,2.40
2024-03-11T23:45:55.171Z,2.13
2024-03-11T23:48:26.335Z,1.70
2024-03-11T23:50:56.619Z,2.15
2024-03-11T23:53:25.466Z,1.90
2024-03-11T23:56:01.901Z,2.00
2024-03-11T23:58:33.546Z,2.40
